Time;durP1;ratioP1;P1;durP2;ratioP2;P2;SDS_P1;SDS_P2;PMS_P1;PMS_P2;Temp;Humidity;BMP_temperature;BMP_pressure;BME280_temperature;BME280_humidity;BME280_pressure;Samples;Min_cycle;Max_cycle;Signal;HPM_P1;HPM_P2
2022/04/19 00:00:42;;;;;;;5.95;2.72;;;;;;;7.28;48.80;101406.53;5039684;28;20036;-68
2022/04/19 00:03:09;;;;;;;9.23;2.70;;;;;;;7.30;49.06;101404.72;5041029;28;20044;-69
2022/04/19 00:05:36;;;;;;;5.15;2.75;;;;;;;7.30;48.92;101394.25;5039397;28;20110;-69
2022/04/19 00:08:03;;;;;;;4.63;2.78;;;;;;;7.31;49.01;101405.56;5031560;28;20024;-69
2022/04/19 00:10:29;;;;;;;8.75;3.22;;;;;;;7.26;48.70;101392.63;5038767;28;20430;-69
2022/04/19 00:12:58;;;;;;;6.57;3.05;;;;;;;7.26;48.77;101397.88;5035272;28;20048;-68
2022/04/19 00:15:27;;;;;;;4.03;2.72;;;;;;;7.29;48.81;101397.78;5036220;28;20167;-69
2022/04/19 00:17:54;;;;;;;5.57;2.67;;;;;;;7.35;48.79;101396.72;5037062;28;20400;-69
2022/04/19 00:20:21;;;;;;;5.43;3.05;;;;;;;7.38;48.65;101401.84;5036540;28;20489;-69
2022/04/19 00:22:49;;;;;;;7.43;2.97;;;;;;;7.38;48.62;101393.13;5031327;28;20479;-68
2022/04/19 00:25:15;;;;;;;5.57;2.70;;;;;;;7.43;48.55;101404.31;5032142;28;20033;-69
2022/04/19 00:27:41;;;;;;;4.30;2.40;;;;;;;7.47;48.39;101400.69;5036562;28;20033;-69
2022/04/19 00:30:07;;;;;;;6.55;3.00;;;;;;;7.51;48.53;101411.91;5034757;28;20075;-69
2022/04/19 00:32:32;;;;;;;7.88;2.60;;;;;;;7.49;48.27;101409.31;5038076;28;20032;-69
2022/04/19 00:34:59;;;;;;;4.00;2.35;;;;;;;7.47;48.22;101400.69;5033948;28;20056;-68
2022/04/19 00:37:25;;;;;;;6.85;2.70;;;;;;;7.46;48.64;101398.97;5038402;28;20422;-68
2022/04/19 00:39:50;;;;;;;4.68;3.08;;;;;;;7.43;48.18;101404.31;5036804;28;20115;-68
2022/04/19 00:42:17;;;;;;;5.35;2.70;;;;;;;7.42;48.61;101397.34;5038505;28;20047;-68
2022/04/19 00:44:43;;;;;;;5.55;3.03;;;;;;;7.45;48.08;101402.50;5037273;28;20486;-69
2022/04/19 00:47:10;;;;;;;5.85;2.83;;;;;;;7.46;47.99;101396.34;5038871;28;20111;-68
2022/04/19 00:49:44;;;;;;;5.82;3.00;;;;;;;7.42;48.39;101397.34;5035982;28;20044;-68
2022/04/19 00:52:10;;;;;;;4.47;2.67;;;;;;;7.36;48.49;101392.31;5038961;28;20036;-68
2022/04/19 00:54:37;;;;;;;4.95;2.60;;;;;;;7.32;48.65;101383.72;5037162;28;20068;-68
2022/04/19 00:57:03;;;;;;;5.93;2.72;;;;;;;7.26;48.34;101387.41;5019611;28;20122;-69
2022/04/19 00:59:29;;;;;;;6.45;2.83;;;;;;;7.27;48.70;101389.13;5040655;28;20535;-68
2022/04/19 01:01:55;;;;;;;5.25;2.65;;;;;;;7.27;48.52;101386.50;5040383;28;20071;-68
2022/04/19 01:04:20;;;;;;;6.30;2.90;;;;;;;7.29;48.64;101379.44;5040967;28;20083;-68
2022/04/19 01:06:46;;;;;;;7.25;2.92;;;;;;;7.32;48.12;101387.22;5042440;28;20037;-68
2022/04/19 01:09:12;;;;;;;7.00;2.90;;;;;;;7.28;48.08;101380.34;5042094;28;20029;-69
2022/04/19 01:14:24;;;;;;;4.63;2.50;;;;;;;7.18;48.68;101373.72;5042222;28;20122;-69
2022/04/19 01:16:50;;;;;;;8.40;2.70;;;;;;;7.16;48.24;101379.00;5044280;28;20025;-69
2022/04/19 01:19:16;;;;;;;8.35;2.83;;;;;;;7.16;48.32;101380.78;5042625;28;20120;-68
2022/04/19 01:21:54;;;;;;;4.93;2.45;;;;;;;7.17;48.62;101378.09;5041370;28;20033;-69
2022/04/19 01:24:21;;;;;;;5.07;2.78;;;;;;;7.18;48.44;101378.97;5041355;28;20060;-68
2022/04/19 01:26:47;;;;;;;4.50;2.55;;;;;;;7.23;48.44;101370.94;5039146;28;20041;-69
2022/04/19 01:29:13;;;;;;;6.43;2.85;;;;;;;7.29;47.94;101374.22;5041957;28;20037;-68
2022/04/19 01:31:40;;;;;;;6.72;2.83;;;;;;;7.31;48.28;101375.03;5041085;28;20045;-68
2022/04/19 01:34:06;;;;;;;6.40;3.00;;;;;;;7.32;48.16;101379.34;5041420;28;20052;-68
2022/04/19 01:36:36;;;;;;;6.18;2.72;;;;;;;7.31;47.75;101375.03;5036894;28;20038;-68
2022/04/19 01:39:03;;;;;;;5.22;2.85;;;;;;;7.28;48.15;101369.00;5038601;28;20039;-67
2022/04/19 01:41:29;;;;;;;5.93;3.10;;;;;;;7.23;47.92;101371.78;5040555;28;20037;-69
2022/04/19 01:43:55;;;;;;;4.78;2.65;;;;;;;7.19;47.88;101369.34;5039084;28;20392;-69
2022/04/19 01:46:20;;;;;;;7.28;2.67;;;;;;;7.15;48.10;101371.22;5043321;28;20347;-68
2022/04/19 01:48:46;;;;;;;7.65;2.95;;;;;;;7.13;48.22;101365.16;5029688;28;20036;-70
2022/04/19 01:51:12;;;;;;;5.65;2.45;;;;;;;7.09;48.40;101368.78;5039785;28;20037;-68
2022/04/19 01:53:37;;;;;;;8.15;2.72;;;;;;;7.07;48.43;101355.75;5042428;28;20033;-68
2022/04/19 01:56:03;;;;;;;5.50;2.78;;;;;;;6.99;48.32;101357.75;5040150;28;20493;-68
2022/04/19 01:58:29;;;;;;;9.90;3.03;;;;;;;6.91;48.60;101355.38;5037457;28;20029;-68
2022/04/19 02:00:54;;;;;;;8.93;3.22;;;;;;;6.91;48.67;101354.53;5042681;28;20033;-69
2022/04/19 02:03:20;;;;;;;7.65;3.05;;;;;;;6.89;48.49;101358.97;5030523;28;20095;-69
2022/04/19 02:05:46;;;;;;;5.85;2.60;;;;;;;6.90;48.33;101358.91;5021981;28;20449;-68
2022/04/19 02:08:11;;;;;;;5.95;3.05;;;;;;;6.86;48.83;101354.69;5037963;28;20051;-68
2022/04/19 02:10:37;;;;;;;5.55;2.72;;;;;;;6.87;48.65;101356.41;5039656;28;20096;-69
2022/04/19 02:13:03;;;;;;;14.73;3.42;;;;;;;6.84;48.79;101353.88;5041695;28;20455;-68
2022/04/19 02:15:29;;;;;;;7.97;3.05;;;;;;;6.75;48.70;101355.03;5030544;28;20033;-69
2022/04/19 02:17:54;;;;;;;7.20;3.20;;;;;;;6.74;48.62;101362.91;5034170;28;20485;-69
2022/04/19 02:20:20;;;;;;;8.52;4.03;;;;;;;6.65;49.11;101358.88;5039525;28;20032;-69
2022/04/19 02:22:46;;;;;;;5.18;3.03;;;;;;;6.58;49.12;101357.31;5004266;28;20053;-69
2022/04/19 02:25:13;;;;;;;5.38;3.30;;;;;;;6.49;49.36;101351.50;5033403;28;20037;-68
2022/04/19 02:27:40;;;;;;;8.98;3.20;;;;;;;6.46;49.41;101356.81;5041271;28;20122;-68
2022/04/19 02:30:14;;;;;;;7.68;3.40;;;;;;;6.42;49.53;101349.13;5040095;28;20056;-69
2022/04/19 02:32:50;;;;;;;7.43;3.33;;;;;;;6.37;49.78;101350.09;5038730;28;20030;-68
2022/04/19 02:35:21;;;;;;;7.53;3.45;;;;;;;6.32;49.78;101352.00;5034700;28;20402;-68
2022/04/19 02:37:51;;;;;;;8.75;3.45;;;;;;;6.30;49.68;101353.78;5038035;28;20091;-69
2022/04/19 02:40:18;;;;;;;7.68;3.20;;;;;;;6.20;50.30;101357.59;5031741;28;20538;-68
2022/04/19 02:42:43;;;;;;;7.47;3.53;;;;;;;6.17;50.36;101357.66;5036349;28;20037;-68
2022/04/19 02:45:09;;;;;;;7.90;3.72;;;;;;;6.17;50.36;101352.44;5037628;28;20041;-68
2022/04/19 02:47:34;;;;;;;6.22;3.30;;;;;;;6.07;50.95;101357.06;5038145;28;20029;-69
2022/04/19 02:50:01;;;;;;;6.90;3.42;;;;;;;6.10;50.63;101357.88;5037797;28;20392;-69
2022/04/19 02:52:26;;;;;;;12.13;4.43;;;;;;;6.18;50.55;101351.53;5041414;28;20482;-68
2022/04/19 02:54:53;;;;;;;6.40;3.60;;;;;;;6.19;50.47;101355.88;5036265;28;20052;-69
2022/04/19 02:57:18;;;;;;;8.18;3.47;;;;;;;6.16;50.50;101345.50;5040250;28;20048;-67
2022/04/19 02:59:44;;;;;;;8.57;3.65;;;;;;;6.14;50.94;101348.19;5038139;28;20585;-68
2022/04/19 03:02:09;;;;;;;9.48;3.95;;;;;;;6.09;51.09;101340.47;5038330;28;20028;-67
2022/04/19 03:04:35;;;;;;;7.15;3.75;;;;;;;6.04;51.34;101331.91;5035889;28;20045;-68
2022/04/19 03:07:01;;;;;;;8.07;3.92;;;;;;;6.00;51.18;101335.50;5039277;28;20504;-68
2022/04/19 03:09:26;;;;;;;9.18;3.85;;;;;;;6.00;51.39;101340.72;5037991;28;20103;-68
2022/04/19 03:11:52;;;;;;;8.05;3.50;;;;;;;5.92;51.44;101337.47;5039140;28;20390;-68
2022/04/19 03:14:18;;;;;;;8.98;4.03;;;;;;;5.91;51.51;101335.75;5039502;28;20124;-68
2022/04/19 03:16:43;;;;;;;9.98;4.40;;;;;;;5.89;51.75;101332.31;5039312;28;20037;-68
2022/04/19 03:19:09;;;;;;;8.57;4.10;;;;;;;5.84;52.04;101348.13;5031389;28;20037;-68
2022/04/19 03:21:34;;;;;;;8.00;4.13;;;;;;;5.76;52.35;101342.25;5009684;28;20033;-68
2022/04/19 03:29:47;;;;;;;8.40;4.28;;;;;;;5.68;52.30;101345.06;4947104;28;20098;-68
2022/04/19 03:32:14;;;;;;;9.60;3.95;;;;;;;5.63;52.65;101346.97;4996755;28;20527;-68
2022/04/19 03:34:40;;;;;;;11.07;5.18;;;;;;;5.58;52.97;101341.00;5039678;28;20044;-68
2022/04/19 03:37:05;;;;;;;7.53;3.65;;;;;;;5.63;52.83;101344.34;5039197;28;20022;-69
2022/04/19 03:39:31;;;;;;;7.65;4.10;;;;;;;5.67;52.92;101346.00;5035692;28;20045;-69
2022/04/19 03:41:57;;;;;;;9.00;4.00;;;;;;;5.64;52.85;101341.69;5036776;28;20029;-68
2022/04/19 03:44:25;;;;;;;8.10;4.65;;;;;;;5.61;52.98;101340.94;5034993;28;20086;-68
2022/04/19 03:47:07;;;;;;;7.22;3.85;;;;;;;5.67;53.14;101347.72;5039904;28;20054;-68
2022/04/19 03:49:32;;;;;;;10.10;4.38;;;;;;;5.74;52.93;101360.59;5040622;28;20197;-68
2022/04/19 03:51:58;;;;;;;12.52;4.78;;;;;;;5.76;52.95;101350.94;5037588;28;20605;-68
2022/04/19 03:54:23;;;;;;;7.32;4.13;;;;;;;5.74;52.79;101357.13;5019206;28;20037;-69
2022/04/19 03:56:49;;;;;;;8.68;3.58;;;;;;;5.65;53.26;101355.63;5038713;28;20033;-68
2022/04/19 03:59:14;;;;;;;8.35;4.45;;;;;;;5.64;53.43;101348.69;5015893;28;20553;-69
2022/04/19 04:01:40;;;;;;;9.55;4.03;;;;;;;5.61;52.91;101349.59;5038228;28;20397;-68
2022/04/19 04:04:07;;;;;;;8.07;4.20;;;;;;;5.59;53.31;101350.56;5038595;28;20051;-69
2022/04/19 04:06:37;;;;;;;7.93;4.03;;;;;;;5.55;53.65;101348.91;5037709;28;20067;-68
2022/04/19 04:09:05;;;;;;;11.27;4.18;;;;;;;5.45;53.82;101343.06;5040694;28;20033;-69
2022/04/19 04:11:32;;;;;;;8.07;4.15;;;;;;;5.40;54.12;101352.81;5037825;28;20489;-68
2022/04/19 04:13:58;;;;;;;9.38;4.43;;;;;;;5.40;54.13;101348.44;5038607;28;20033;-68
2022/04/19 04:16:23;;;;;;;7.55;4.05;;;;;;;5.40;54.39;101345.81;5037202;28;20036;-69
2022/04/19 04:18:49;;;;;;;10.95;4.90;;;;;;;5.41;54.47;101352.75;5034425;28;20032;-68
2022/04/19 04:21:14;;;;;;;8.57;4.15;;;;;;;5.37;54.38;101364.16;5036626;28;20070;-69
2022/04/19 04:23:39;;;;;;;22.95;12.50;;;;;;;5.40;54.61;101366.69;5038287;28;20034;-68
2022/04/19 04:26:05;;;;;;;11.00;4.35;;;;;;;5.44;54.54;101351.84;5040458;28;20090;-68
2022/04/19 04:28:30;;;;;;;8.30;4.68;;;;;;;5.49;54.56;101356.03;5038085;28;20043;-69
2022/04/19 04:30:56;;;;;;;6.70;4.40;;;;;;;5.53;54.37;101351.56;5039046;28;20364;-69
2022/04/19 04:33:21;;;;;;;9.07;4.75;;;;;;;5.55;54.46;101360.22;5016890;28;20409;-69
2022/04/19 04:35:47;;;;;;;8.82;4.53;;;;;;;5.52;54.51;101359.47;5033342;28;20033;-69
2022/04/19 04:38:14;;;;;;;11.75;6.15;;;;;;;5.51;54.75;101358.59;5036497;28;20117;-69
2022/04/19 04:40:39;;;;;;;6.72;4.72;;;;;;;5.51;54.63;101360.34;5038471;28;20025;-69
2022/04/19 04:43:05;;;;;;;8.45;4.60;;;;;;;5.45;55.01;101364.84;5038625;28;20037;-68
2022/04/19 04:45:31;;;;;;;10.10;4.82;;;;;;;5.45;54.89;101369.19;5038977;28;20033;-68
2022/04/19 04:50:40;;;;;;;8.45;5.07;;;;;;;5.40;55.13;101366.69;5038455;28;20048;-68
2022/04/19 04:53:05;;;;;;;7.82;4.90;;;;;;;5.32;55.53;101361.69;5037219;28;20032;-68
2022/04/19 04:55:31;;;;;;;11.13;5.38;;;;;;;5.34;55.49;101372.09;5036717;28;20505;-68
2022/04/19 04:57:59;;;;;;;18.17;9.75;;;;;;;5.39;55.43;101374.59;5033991;28;20064;-68
2022/04/19 05:00:27;;;;;;;11.48;5.20;;;;;;;5.29;55.90;101368.75;5027678;28;20070;-68
2022/04/19 05:02:53;;;;;;;6.90;4.22;;;;;;;5.33;55.41;101370.38;5036985;28;20131;-68
2022/04/19 05:05:19;;;;;;;10.95;5.18;;;;;;;5.40;55.20;101371.91;5017596;28;20121;-68
2022/04/19 05:07:44;;;;;;;10.70;4.63;;;;;;;5.49;55.22;101366.47;5036304;28;20133;-68
2022/04/19 05:10:10;;;;;;;11.82;5.03;;;;;;;5.46;55.27;101377.00;5037256;28;20124;-68
2022/04/19 05:12:35;;;;;;;10.10;4.97;;;;;;;5.50;55.29;101367.31;5019186;28;20084;-69
2022/04/19 05:15:01;;;;;;;12.50;5.13;;;;;;;5.58;55.36;101374.94;5036303;28;20033;-68
2022/04/19 05:17:27;;;;;;;9.32;4.85;;;;;;;5.59;55.30;101371.44;5033622;28;20037;-69
2022/04/19 05:19:56;;;;;;;7.35;4.53;;;;;;;5.56;55.43;101368.91;5036662;28;20079;-69
2022/04/19 05:22:22;;;;;;;11.25;5.07;;;;;;;5.50;55.49;101369.94;5038305;28;20108;-69
2022/04/19 05:24:48;;;;;;;12.70;6.35;;;;;;;5.48;55.66;101366.50;5036289;28;20509;-68
2022/04/19 05:27:14;;;;;;;12.25;6.43;;;;;;;5.53;55.53;101361.16;5039356;28;20040;-68
2022/04/19 05:29:39;;;;;;;10.70;5.40;;;;;;;5.55;55.49;101364.56;5037509;28;20025;-69
2022/04/19 05:32:05;;;;;;;10.90;5.15;;;;;;;5.52;56.00;101362.06;5021729;28;20037;-68
2022/04/19 05:34:31;;;;;;;10.90;5.15;;;;;;;5.56;55.79;101366.28;5036609;28;20053;-69
2022/04/19 05:36:57;;;;;;;7.38;4.72;;;;;;;5.56;55.72;101361.06;5032478;28;20036;-68
2022/04/19 05:39:22;;;;;;;8.85;4.93;;;;;;;5.56;55.90;101361.94;5035303;28;20029;-69
2022/04/19 05:41:48;;;;;;;7.85;4.68;;;;;;;5.63;55.69;101367.84;5037003;28;20055;-69
2022/04/19 05:44:14;;;;;;;10.45;4.60;;;;;;;5.72;55.42;101357.16;5038632;28;20029;-69
2022/04/19 05:46:39;;;;;;;10.38;4.75;;;;;;;5.80;55.52;101364.78;5041306;28;20045;-69
2022/04/19 05:49:05;;;;;;;9.23;4.35;;;;;;;5.83;54.94;101369.91;5018689;28;20060;-70
2022/04/19 05:51:34;;;;;;;7.80;4.55;;;;;;;5.91;54.90;101367.09;5043215;28;20507;-70
2022/04/19 05:54:00;;;;;;;10.32;4.80;;;;;;;5.97;54.67;101366.06;5041450;28;20047;-69
2022/04/19 05:56:26;;;;;;;8.45;4.35;;;;;;;6.00;54.54;101374.69;5039080;28;20025;-69
2022/04/19 05:58:52;;;;;;;12.55;4.75;;;;;;;6.06;54.37;101377.13;5040541;28;20039;-69
2022/04/19 06:01:18;;;;;;;8.50;4.28;;;;;;;6.10;54.14;101377.91;5007340;28;20033;-69
2022/04/19 06:06:29;;;;;;;9.40;4.22;;;;;;;6.03;53.96;101374.59;5038020;28;20052;-69
2022/04/19 06:08:54;;;;;;;13.70;4.35;;;;;;;6.10;53.72;101373.53;5041401;28;20033;-69
2022/04/19 06:11:21;;;;;;;12.73;4.97;;;;;;;6.18;53.80;101375.06;5021734;28;20039;-68
2022/04/19 06:13:47;;;;;;;10.57;4.53;;;;;;;6.24;53.58;101369.66;5042173;28;20128;-68
2022/04/19 06:16:12;;;;;;;10.38;4.13;;;;;;;6.24;53.30;101380.13;5039010;28;20100;-69
2022/04/19 06:18:38;;;;;;;6.05;3.53;;;;;;;6.29;53.40;101382.59;5041726;28;20528;-68
2022/04/19 06:21:05;;;;;;;6.55;3.78;;;;;;;6.27;52.83;101373.94;5032378;28;20043;-68
2022/04/19 06:23:34;;;;;;;8.63;3.85;;;;;;;6.38;52.63;101372.72;5042669;28;20032;-69
2022/04/19 06:26:00;;;;;;;8.60;3.40;;;;;;;6.50;52.71;101368.03;5040707;28;20103;-68
2022/04/19 06:28:26;;;;;;;7.07;3.95;;;;;;;6.58;52.38;101368.63;5036781;28;20029;-69
2022/04/19 06:30:51;;;;;;;6.50;3.33;;;;;;;6.61;52.64;101373.78;5038907;28;20036;-68
2022/04/19 06:33:17;;;;;;;5.20;3.33;;;;;;;6.60;52.45;101366.81;5039531;28;20033;-69
2022/04/19 06:35:42;;;;;;;6.90;3.38;;;;;;;6.58;52.29;101362.56;5039600;28;20021;-69
2022/04/19 06:38:09;;;;;;;4.95;2.90;;;;;;;6.65;52.50;101370.16;5041721;28;20118;-69
2022/04/19 06:40:34;;;;;;;5.57;2.50;;;;;;;6.66;52.23;101366.66;5039527;28;20124;-68
2022/04/19 06:43:00;;;;;;;6.50;3.40;;;;;;;6.78;52.24;101372.38;5041289;28;20470;-69
2022/04/19 06:45:26;;;;;;;9.55;3.60;;;;;;;6.82;51.92;101376.63;5039455;28;20039;-69
2022/04/19 06:47:59;;;;;;;8.50;3.03;;;;;;;6.86;52.20;101373.84;5038879;28;20037;-69
2022/04/19 06:50:25;;;;;;;6.38;2.70;;;;;;;6.97;51.84;101370.91;5038847;28;20029;-69
2022/04/19 06:52:51;;;;;;;5.55;3.35;;;;;;;7.00;51.73;101378.66;5037457;28;20037;-69
2022/04/19 06:55:17;;;;;;;4.15;2.78;;;;;;;7.05;51.75;101375.00;5039653;28;20045;-69
2022/04/19 06:57:43;;;;;;;6.75;3.47;;;;;;;7.14;51.43;101372.09;5041719;28;20040;-68
2022/04/19 07:00:08;;;;;;;5.72;3.30;;;;;;;7.24;51.69;101378.75;5039192;28;20036;-68
2022/04/19 07:02:34;;;;;;;6.55;3.05;;;;;;;7.30;51.68;101375.06;5040030;28;20385;-68
2022/04/19 07:04:59;;;;;;;6.97;3.10;;;;;;;7.33;51.26;101370.56;5021498;28;20037;-68
2022/04/19 07:07:25;;;;;;;7.18;3.00;;;;;;;7.36;51.78;101369.63;5038930;28;20037;-69
2022/04/19 07:09:50;;;;;;;5.68;3.35;;;;;;;7.43;51.70;101380.75;5037001;28;20041;-69
2022/04/19 07:12:18;;;;;;;8.20;3.20;;;;;;;7.46;51.78;101373.63;5042214;28;20105;-68
2022/04/19 07:14:43;;;;;;;8.13;3.90;;;;;;;7.53;51.31;101358.56;5037565;28;20033;-69
2022/04/19 07:17:09;;;;;;;10.15;3.53;;;;;;;7.60;51.45;101365.31;5038496;28;20056;-69
2022/04/19 07:27:49;;;;;;;7.93;3.63;;;;;;;7.97;50.84;101380.59;5039440;28;20048;-69
2022/04/19 07:30:16;;;;;;;9.38;3.60;;;;;;;8.06;50.54;101378.50;5038042;28;20060;-64
2022/04/19 07:32:42;;;;;;;5.50;3.92;;;;;;;8.15;50.38;101377.28;5035538;28;20390;-66
2022/04/19 07:35:09;;;;;;;4.93;3.30;;;;;;;8.17;49.97;101380.72;5035318;28;20520;-71
2022/04/19 07:37:34;;;;;;;8.35;3.70;;;;;;;8.23;49.70;101379.63;5036747;28;20512;-71
2022/04/19 07:39:59;;;;;;;4.82;2.70;;;;;;;8.35;49.51;101375.69;5040870;28;20182;-72
2022/04/19 07:42:25;;;;;;;4.85;2.53;;;;;;;8.46;49.18;101376.13;5041678;28;20048;-67
2022/04/19 07:44:50;;;;;;;6.43;2.83;;;;;;;8.57;49.00;101367.88;5027038;28;20505;-67
2022/04/19 07:47:17;;;;;;;8.32;2.90;;;;;;;8.67;48.94;101371.84;5041211;28;20052;-72
2022/04/19 07:49:43;;;;;;;4.65;2.38;;;;;;;8.74;48.24;101368.97;5039971;28;20083;-67
2022/04/19 07:52:09;;;;;;;10.65;2.60;;;;;;;8.79;47.47;101370.50;5038600;28;20037;-68
2022/04/19 07:54:36;;;;;;;3.22;1.90;;;;;;;8.88;47.17;101371.03;5035879;28;20033;-67
2022/04/19 07:57:01;;;;;;;3.08;1.73;;;;;;;8.97;47.04;101370.69;5039966;28;20623;-68
2022/04/19 07:59:27;;;;;;;3.35;2.08;;;;;;;9.03;46.33;101369.56;5039867;28;20025;-67
2022/04/19 08:01:52;;;;;;;5.28;2.40;;;;;;;9.04;46.56;101363.41;5020916;28;20024;-68
2022/04/19 08:04:18;;;;;;;5.85;1.70;;;;;;;9.07;46.33;101364.13;5039661;28;20059;-67
2022/04/19 08:06:43;;;;;;;2.55;1.70;;;;;;;9.11;46.32;101355.22;5038160;28;20045;-72
2022/04/19 08:09:08;;;;;;;5.82;1.83;;;;;;;9.21;45.58;101354.81;5040168;28;20047;-68
2022/04/19 08:11:34;;;;;;;6.32;2.00;;;;;;;9.28;45.67;101366.78;5036334;28;20418;-69
2022/04/19 08:14:00;;;;;;;3.15;1.80;;;;;;;9.34;45.45;101358.63;5034794;28;20528;-72
2022/04/19 08:16:25;;;;;;;8.07;1.90;;;;;;;9.42;45.59;101355.66;5034192;28;20070;-68
2022/04/19 08:18:51;;;;;;;6.32;2.08;;;;;;;9.47;45.31;101348.44;5035556;28;20036;-69
2022/04/19 08:21:17;;;;;;;3.78;1.60;;;;;;;9.58;45.19;101361.13;5036506;28;20086;-69
2022/04/19 08:23:42;;;;;;;5.18;1.80;;;;;;;9.65;44.91;101351.19;5035369;28;20447;-68
2022/04/19 08:26:08;;;;;;;6.85;2.15;;;;;;;9.72;44.63;101350.84;5036739;28;20032;-69
2022/04/19 08:28:33;;;;;;;4.63;1.70;;;;;;;9.81;44.62;101356.63;5038510;28;20124;-69
2022/04/19 08:30:59;;;;;;;4.00;1.70;;;;;;;9.82;44.06;101353.06;5035442;28;20041;-69
2022/04/19 08:33:24;;;;;;;5.85;1.88;;;;;;;9.82;44.00;101353.94;5014435;28;20456;-70
2022/04/19 08:35:50;;;;;;;9.40;1.48;;;;;;;9.83;43.89;101352.16;5034998;28;20083;-69
2022/04/19 08:38:16;;;;;;;2.83;1.67;;;;;;;9.96;43.89;101352.47;5036793;28;20029;-69
2022/04/19 08:40:42;;;;;;;5.43;1.80;;;;;;;10.04;43.44;101352.94;5029250;28;20326;-70
2022/04/19 08:43:07;;;;;;;4.47;2.30;;;;;;;10.11;43.33;101341.25;5031207;28;20041;-69
2022/04/19 08:45:33;;;;;;;5.90;1.67;;;;;;;10.19;43.41;101348.78;5036142;28;20033;-69
2022/04/19 08:48:00;;;;;;;4.25;1.58;;;;;;;10.28;43.44;101337.81;5037394;28;20136;-70
2022/04/19 08:50:28;;;;;;;4.15;1.60;;;;;;;10.35;43.21;101341.00;5039051;28;20037;-70
2022/04/19 08:58:36;;;;;;;7.07;1.67;;;;;;;10.33;43.05;101354.25;5039447;28;20129;-70
2022/04/19 09:01:02;;;;;;;3.45;1.52;;;;;;;10.39;42.86;101352.25;5039320;28;20048;-68
2022/04/19 09:03:27;;;;;;;4.07;2.25;;;;;;;10.44;43.08;101350.28;5038098;28;20040;-70
2022/04/19 09:05:53;;;;;;;4.63;1.70;;;;;;;10.50;42.67;101350.84;5038335;28;20489;-69
2022/04/19 09:08:20;;;;;;;3.45;1.50;;;;;;;10.56;42.67;101352.31;5037085;28;20070;-70
2022/04/19 09:10:45;;;;;;;5.57;1.50;;;;;;;10.64;42.66;101349.31;5039783;28;20406;-69
2022/04/19 09:13:21;;;;;;;4.38;1.80;;;;;;;10.67;42.52;101333.38;5038193;28;20132;-72
2022/04/19 09:15:46;;;;;;;3.53;1.77;;;;;;;10.69;42.62;101344.69;5035439;28;20182;-70
2022/04/19 09:18:33;;;;;;;5.18;1.90;;;;;;;10.76;42.49;101345.25;5033829;28;20512;-69
2022/04/19 09:21:01;;;;;;;5.50;1.80;;;;;;;10.74;42.51;101350.56;5039893;28;20033;-69
2022/04/19 09:23:29;;;;;;;6.03;2.50;;;;;;;10.75;42.40;101346.16;5040972;28;20165;-69
2022/04/19 09:25:59;;;;;;;2.10;1.50;;;;;;;10.83;42.46;101339.59;5040360;28;20129;-70
2022/04/19 09:28:26;;;;;;;5.10;1.60;;;;;;;10.89;42.35;101350.78;5021611;28;20111;-69
2022/04/19 09:30:57;;;;;;;2.10;1.52;;;;;;;10.90;42.00;101341.91;5039834;28;20537;-69
2022/04/19 09:33:25;;;;;;;3.40;1.90;;;;;;;11.01;42.23;101344.00;5034899;28;20595;-69
2022/04/19 09:36:08;;;;;;;4.50;1.70;;;;;;;11.13;42.00;101351.28;5015035;28;20043;-68
2022/04/19 09:38:46;;;;;;;6.80;3.33;;;;;;;11.22;41.60;101342.94;5035083;28;20082;-67
2022/04/19 09:41:32;;;;;;;4.63;1.88;;;;;;;11.35;41.70;101347.59;5042810;28;20041;-69
2022/04/19 09:44:12;;;;;;;3.47;1.83;;;;;;;11.46;41.61;101358.41;5038887;28;20053;-68
2022/04/19 09:46:38;;;;;;;3.40;1.50;;;;;;;11.49;41.40;101338.97;5039951;28;20397;-69
2022/04/19 09:49:04;;;;;;;2.10;1.23;;;;;;;11.50;41.49;101332.75;5036120;28;20481;-68
2022/04/19 09:51:31;;;;;;;3.95;1.77;;;;;;;11.48;41.59;101347.81;5035657;28;20029;-70
2022/04/19 09:53:57;;;;;;;4.55;1.60;;;;;;;11.49;41.70;101337.19;5040882;28;20029;-68
2022/04/19 09:56:22;;;;;;;7.88;2.10;;;;;;;11.43;41.71;101334.84;5024284;28;20025;-69
2022/04/19 09:58:50;;;;;;;4.40;1.70;;;;;;;11.50;41.94;101343.28;5041428;28;20033;-70
2022/04/19 10:09:36;;;;;;;7.32;1.88;;;;;;;11.58;41.01;101339.31;5041607;28;20111;-70
2022/04/19 10:12:03;;;;;;;5.03;1.58;;;;;;;11.66;41.00;101325.75;5036048;28;20335;-70
2022/04/19 10:14:32;;;;;;;3.80;1.52;;;;;;;11.72;40.46;101330.69;5038511;28;20025;-70
2022/04/19 10:16:58;;;;;;;6.35;1.90;;;;;;;11.76;40.60;101326.09;5039496;28;20054;-69
2022/04/19 10:19:25;;;;;;;3.35;1.63;;;;;;;11.75;40.25;101329.66;5041394;28;20426;-68
2022/04/19 10:21:52;;;;;;;2.33;1.30;;;;;;;11.81;40.08;101325.84;5020819;28;20029;-69
2022/04/19 10:24:19;;;;;;;5.18;1.80;;;;;;;11.80;39.89;101327.66;5039274;28;20036;-76
2022/04/19 10:26:51;;;;;;;5.10;1.58;;;;;;;11.92;39.70;101327.91;5039515;28;20036;-74
2022/04/19 10:29:29;;;;;;;3.90;1.60;;;;;;;12.01;39.49;101325.66;5036082;28;20170;-72
2022/04/19 10:32:04;;;;;;;5.75;1.48;;;;;;;12.08;39.30;101331.47;5043290;28;20032;-71
2022/04/19 10:34:35;;;;;;;2.45;1.63;;;;;;;12.22;39.39;101327.22;5039409;28;20130;-67
2022/04/19 10:37:15;;;;;;;3.17;1.40;;;;;;;12.33;39.14;101325.69;5035179;28;20056;-71
2022/04/19 10:39:54;;;;;;;5.05;3.70;;;;;;;12.43;38.68;101333.06;5037769;28;20041;-70
2022/04/19 10:42:33;;;;;;;3.03;1.40;;;;;;;12.45;38.53;101333.84;5038338;28;20033;-71
2022/04/19 10:45:20;;;;;;;3.08;1.40;;;;;;;12.47;38.78;101337.25;5033597;28;20124;-67
2022/04/19 10:47:55;;;;;;;4.88;1.38;;;;;;;12.52;38.83;101336.97;5037657;28;20044;-71
2022/04/19 10:50:40;;;;;;;2.95;1.60;;;;;;;12.55;38.66;101336.81;5040351;28;20040;-68
2022/04/19 10:53:05;;;;;;;3.30;1.50;;;;;;;12.58;38.75;101339.28;5038507;28;20128;-66
2022/04/19 10:55:34;;;;;;;4.90;1.60;;;;;;;12.61;38.62;101344.41;5042522;28;20112;-69
2022/04/19 10:58:09;;;;;;;2.85;1.30;;;;;;;12.66;38.55;101347.63;5037434;28;20070;-68
2022/04/19 11:00:34;;;;;;;4.05;1.70;;;;;;;12.70;37.99;101351.78;5034341;28;20025;-68
2022/04/19 11:03:02;;;;;;;3.00;1.40;;;;;;;12.75;37.96;101352.38;5029666;28;20045;-68
2022/04/19 11:05:44;;;;;;;3.40;1.33;;;;;;;12.81;37.99;101351.19;5036893;28;20179;-71
2022/04/19 11:08:22;;;;;;;2.28;1.17;;;;;;;12.81;37.80;101352.00;5040790;28;20036;-67
2022/04/19 11:10:49;;;;;;;3.05;1.20;;;;;;;12.86;37.92;101353.56;5036044;28;20033;-69
2022/04/19 11:13:15;;;;;;;3.60;1.40;;;;;;;12.89;38.06;101354.22;5039209;28;20445;-68
2022/04/19 11:15:42;;;;;;;5.32;1.60;;;;;;;12.93;38.04;101349.63;5037282;28;20029;-68
2022/04/19 11:18:24;;;;;;;3.22;1.40;;;;;;;12.96;37.95;101346.78;5033546;28;20679;-70
2022/04/19 11:20:51;;;;;;;7.40;1.42;;;;;;;13.04;37.98;101347.19;5038131;28;20405;-67
2022/04/19 11:23:19;;;;;;;3.17;1.52;;;;;;;13.17;38.17;101351.75;5040077;28;20430;-67
2022/04/19 11:25:45;;;;;;;3.97;1.48;;;;;;;13.30;37.94;101342.16;5039053;28;20083;-67
2022/04/19 11:28:11;;;;;;;2.47;1.30;;;;;;;13.40;37.84;101348.63;5040890;28;20513;-68
2022/04/19 11:30:42;;;;;;;2.88;1.30;;;;;;;13.51;37.79;101352.44;5036850;28;20041;-69
2022/04/19 11:33:08;;;;;;;2.55;1.20;;;;;;;13.58;37.35;101348.44;5040983;28;20068;-68
2022/04/19 11:35:34;;;;;;;2.20;1.60;;;;;;;13.66;37.36;101343.56;5039779;28;20115;-69
2022/04/19 11:38:05;;;;;;;2.78;1.55;;;;;;;13.70;37.12;101338.94;5023132;28;20033;-67
2022/04/19 11:48:45;;;;;;;;;;;;;;;14.05;37.02;101353.56;5038836;28;20036;-67
2022/04/19 11:51:14;;;;;;;;;;;;;;;14.03;37.07;101357.13;5037002;28;20372;-69
2022/04/19 11:53:39;;;;;;;;;;;;;;;14.00;37.04;101354.69;5040082;28;19916;-69
2022/04/19 11:56:06;;;;;;;;;;;;;;;13.87;36.57;101346.69;5040244;28;19944;-66
2022/04/19 11:58:32;;;;;;;;;;;;;;;13.79;37.22;101342.81;5039471;28;20365;-69
2022/04/19 12:00:58;;;;;;;;;;;;;;;13.74;37.32;101344.88;5037260;28;20051;-67
2022/04/19 12:03:27;;;;;;;;;;;;;;;13.75;37.48;101334.22;5036166;28;19974;-67
2022/04/19 12:05:54;;;;;;;;;;;;;;;13.78;37.50;101338.47;5040079;28;19923;-69
2022/04/19 12:08:33;;;;;;;;;;;;;;;13.81;37.65;101346.22;5037555;28;20237;-68
2022/04/19 12:11:00;;;;;;;;;;;;;;;13.79;37.61;101348.09;5040899;28;19920;-67
2022/04/19 12:13:26;;;;;;;;;;;;;;;13.80;37.76;101344.50;5036343;28;19917;-67
2022/04/19 12:15:51;;;;;;;;;;;;;;;13.81;37.74;101330.34;5038248;28;19928;-68
2022/04/19 12:18:29;;;;;;;;;;;;;;;13.86;37.55;101342.34;5038929;28;20281;-67